Chester, SC

10:38 AM EST on February 14, 2016 (GMT -0500)
Chester | | Change Station
CLOSE
Current Station
Airport
Location: Chester,
Elevation: 656 ft
Nearby Weather Stations

Elev 656 ft 34.79 °N, 81.20 °W | Updated 23 minutes ago

Mostly Cloudy
Mostly Cloudy
27 °F
Feels Like 18 °F
N
8
Wind Variable Wind from ENE

Today
High -- | Low -- °F
--% Chance of Precip.
Yesterday
High -- | Low -- °F
Precip. -- in
Pressure 30.51 in
Visibility 10.0 miles
Clouds Scattered Clouds 7000 ft
Scattered Clouds 8000 ft
Mostly Cloudy 11000 ft
Windchill 18 °F
Dew Point 1 °F
Humidity 34%
Rainfall 0.00 in
Snow Depth Not available.
7:12 AM 6:06 PM
Waxing Crescent, 42% visible
METAR KDCM 141515Z AUTO 07007KT 10SM SCT070 SCT080 BKN110 M03/M17 A3051 RMK AO2
Pressure 30.51 in
Visibility 10.0 miles
Clouds Scattered Clouds 7000 ft
Scattered Clouds 8000 ft
Mostly Cloudy 11000 ft
Windchill 18 °F
Dew Point 1 °F
Humidity 34%
Rainfall 0.00 in
Snow Depth Not available.
7:12 AM 6:06 PM
Waxing Crescent, 42% visible
METAR KDCM 141515Z AUTO 07007KT 10SM SCT070 SCT080 BKN110 M03/M17 A3051 RMK AO2

10-Day Weather Forecast

Almanac

Astronomy

Feb. 14, 2016 Rise Set
Actual Time
Civil Twilight
Nautical Twilight
Astronomical Twilight
Moon
Length of Visible Light
Length of Day
Tomorrow will be .
, % of the Moon is Illuminated

Today's Extremes

State Highs State Lows

Community

WunderPhotos

Upload Photos

1,892,795 photos uploaded!

WunderBlog® & News

Nearby

Air Quality

  Air Quality AQ Index Pollutant
Not available.

Snow Depth

Station Depth Elevation

Earthquake Activity

City Distance Mag. Time & Date
Minimum magnitude displayed is 2.5.

Coastal Water Temperatures

Place Temperature

Stations

Nearby Weather Stations

Station Location Temp. Windchill Dew Point Humidity Wind Precip. Elev Updated Type
                   

Watches & Warnings

There are currently no watches in effect.